createdAt,value
2022-11-22T00:00:42.678Z,6.40
2022-11-22T00:03:09.841Z,6.40
2022-11-22T00:05:37.188Z,6.40
2022-11-22T00:08:04.581Z,6.40
2022-11-22T00:10:31.710Z,6.40
2022-11-22T00:12:58.769Z,6.40
2022-11-22T00:15:26.005Z,6.50
2022-11-22T00:17:52.835Z,6.50
2022-11-22T00:20:19.692Z,6.50
2022-11-22T00:22:46.524Z,6.60
2022-11-22T00:25:14.595Z,6.60
2022-11-22T00:27:41.699Z,6.60
2022-11-22T00:30:09.465Z,6.60
2022-11-22T00:32:37.002Z,6.70
2022-11-22T00:35:04.861Z,6.70
2022-11-22T00:37:31.703Z,6.70
2022-11-22T00:39:58.630Z,6.70
2022-11-22T00:42:28.690Z,6.80
2022-11-22T00:44:55.555Z,6.80
2022-11-22T00:47:22.364Z,6.70
2022-11-22T00:49:49.186Z,6.80
2022-11-22T00:52:16.029Z,6.80
2022-11-22T00:54:43.001Z,6.80
2022-11-22T00:57:09.822Z,6.90
2022-11-22T00:59:36.650Z,6.90
2022-11-22T01:02:03.637Z,6.90
2022-11-22T01:04:30.446Z,6.90
2022-11-22T01:06:57.304Z,6.90
2022-11-22T01:09:24.998Z,7.00
2022-11-22T01:11:52.434Z,7.00
2022-11-22T01:14:19.918Z,7.00
2022-11-22T01:16:47.604Z,7.00
2022-11-22T01:19:14.850Z,7.00
2022-11-22T01:21:41.718Z,7.00
2022-11-22T01:24:08.973Z,7.10
2022-11-22T01:26:35.857Z,7.10
2022-11-22T01:29:03.140Z,7.20
2022-11-22T01:31:30.259Z,7.20
2022-11-22T01:33:58.896Z,7.30
2022-11-22T01:36:27.340Z,7.30
2022-11-22T01:38:54.462Z,7.40
2022-11-22T01:41:22.789Z,7.40
2022-11-22T01:43:49.683Z,7.50
2022-11-22T01:46:38.069Z,7.70
2022-11-22T01:49:41.925Z,7.60
2022-11-22T01:52:24.522Z,7.70
2022-11-22T01:55:09.378Z,7.70
2022-11-22T01:57:40.900Z,7.70
2022-11-22T02:00:12.349Z,7.80
2022-11-22T02:02:39.333Z,7.80
2022-11-22T02:05:12.904Z,7.80
2022-11-22T02:07:46.715Z,7.80
2022-11-22T02:10:17.680Z,7.80
2022-11-22T02:12:45.321Z,7.90
2022-11-22T02:15:12.658Z,7.90
2022-11-22T02:17:39.465Z,7.80
2022-11-22T02:20:08.366Z,7.90
2022-11-22T02:23:22.550Z,7.90
2022-11-22T02:25:57.716Z,7.90
2022-11-22T02:28:27.268Z,8.00
2022-11-22T02:30:54.119Z,7.90
2022-11-22T02:33:21.046Z,7.90
2022-11-22T02:35:48.178Z,8.00
2022-11-22T02:38:24.812Z,8.00
2022-11-22T02:40:56.149Z,8.00
2022-11-22T02:43:34.939Z,8.00
2022-11-22T02:46:09.685Z,8.00
2022-11-22T02:48:44.378Z,8.10
2022-11-22T02:51:16.790Z,8.10
2022-11-22T02:53:44.660Z,8.10
2022-11-22T02:56:11.498Z,8.10
2022-11-22T02:58:38.510Z,8.10
2022-11-22T03:01:05.744Z,8.20
2022-11-22T03:03:33.870Z,8.30
2022-11-22T03:06:02.355Z,8.20
2022-11-22T03:08:29.296Z,8.20
2022-11-22T03:10:59.710Z,8.40
2022-11-22T03:13:26.977Z,8.30
2022-11-22T03:15:53.771Z,8.40
2022-11-22T03:18:21.066Z,8.40
2022-11-22T03:20:47.832Z,8.50
2022-11-22T03:23:14.757Z,8.50
2022-11-22T03:25:42.321Z,8.50
2022-11-22T03:28:09.210Z,8.50
2022-11-22T03:30:41.284Z,8.60
2022-11-22T03:33:08.165Z,8.70
2022-11-22T03:35:35.038Z,8.60
2022-11-22T03:38:01.873Z,8.70
2022-11-22T03:40:28.822Z,8.70
2022-11-22T03:42:58.898Z,8.80
2022-11-22T03:45:25.967Z,8.80
2022-11-22T03:47:52.816Z,8.80
2022-11-22T03:50:19.594Z,8.80
2022-11-22T03:52:46.405Z,8.90
2022-11-22T03:55:13.178Z,8.80
2022-11-22T03:57:42.752Z,8.80
2022-11-22T04:00:10.845Z,8.70
2022-11-22T04:02:37.656Z,8.70
2022-11-22T04:05:04.871Z,8.60
2022-11-22T04:07:31.699Z,8.60
2022-11-22T04:09:58.530Z,8.60
2022-11-22T04:12:25.326Z,8.60
2022-11-22T04:15:07.404Z,8.60
2022-11-22T04:17:40.528Z,8.60
2022-11-22T04:20:38.468Z,8.60
2022-11-22T04:23:09.860Z,8.60
2022-11-22T04:25:40.906Z,8.60
2022-11-22T04:28:10.008Z,8.60
2022-11-22T04:30:55.683Z,8.60
2022-11-22T04:33:23.619Z,8.60
2022-11-22T04:35:51.414Z,8.60
2022-11-22T04:38:18.953Z,8.60
2022-11-22T04:40:47.055Z,8.60
2022-11-22T04:43:44.845Z,8.60
2022-11-22T04:46:13.700Z,8.60
2022-11-22T04:48:41.596Z,8.60
2022-11-22T04:51:32.791Z,8.50
2022-11-22T04:53:59.763Z,8.50
2022-11-22T04:56:26.583Z,8.50
2022-11-22T04:58:54.302Z,8.50
2022-11-22T05:01:21.225Z,8.40
2022-11-22T05:03:48.081Z,8.50
2022-11-22T05:06:15.108Z,8.50
2022-11-22T05:08:42.022Z,8.50
2022-11-22T05:11:08.888Z,8.60
2022-11-22T05:13:38.822Z,8.60
2022-11-22T05:16:08.979Z,8.60
2022-11-22T05:18:36.653Z,8.60
2022-11-22T05:21:09.890Z,8.60
2022-11-22T05:23:55.358Z,8.70
2022-11-22T05:26:36.536Z,8.70
2022-11-22T05:29:09.797Z,8.70
2022-11-22T05:31:40.973Z,8.70
2022-11-22T05:34:07.912Z,8.70
2022-11-22T05:36:35.498Z,8.80
2022-11-22T05:39:02.957Z,8.70
2022-11-22T05:41:29.888Z,8.70
2022-11-22T05:43:57.868Z,8.70
2022-11-22T05:46:30.127Z,8.80
2022-11-22T05:48:58.520Z,8.70
2022-11-22T05:51:34.605Z,8.70
2022-11-22T05:54:02.939Z,8.80
2022-11-22T05:56:29.923Z,8.70
2022-11-22T05:58:56.728Z,8.70
2022-11-22T06:01:24.879Z,8.70
2022-11-22T06:03:52.403Z,8.70
2022-11-22T06:06:20.089Z,8.80
2022-11-22T06:08:48.640Z,8.80
2022-11-22T06:11:21.282Z,8.90
2022-11-22T06:13:51.314Z,8.90
2022-11-22T06:16:18.780Z,8.90
2022-11-22T06:18:45.923Z,9.00
2022-11-22T06:21:17.134Z,9.00
2022-11-22T06:23:45.002Z,9.00
2022-11-22T06:26:16.485Z,9.00
2022-11-22T06:28:45.002Z,9.00
2022-11-22T06:31:25.427Z,9.00
2022-11-22T06:33:55.511Z,9.00
2022-11-22T06:36:32.218Z,9.00
2022-11-22T06:38:59.822Z,8.90
2022-11-22T06:41:31.615Z,8.90
2022-11-22T06:43:58.478Z,8.90
2022-11-22T06:46:27.422Z,8.90
2022-11-22T06:48:54.409Z,8.90
2022-11-22T06:51:24.544Z,8.90
2022-11-22T06:53:52.726Z,9.00
2022-11-22T06:56:52.747Z,8.90
2022-11-22T06:59:19.715Z,8.90
2022-11-22T07:01:46.656Z,9.00
2022-11-22T07:04:13.560Z,9.00
2022-11-22T07:06:40.478Z,9.00
2022-11-22T07:09:10.153Z,9.00
2022-11-22T07:11:38.004Z,8.90
2022-11-22T07:14:08.908Z,8.90
2022-11-22T07:16:39.593Z,9.00
2022-11-22T07:19:10.223Z,9.00
2022-11-22T07:21:40.214Z,9.00
2022-11-22T07:24:08.357Z,9.00
2022-11-22T07:26:35.210Z,9.00
2022-11-22T07:29:02.079Z,9.00
2022-11-22T07:31:29.156Z,9.00
2022-11-22T07:33:58.109Z,9.00
2022-11-22T07:36:25.489Z,9.00
2022-11-22T07:38:52.403Z,8.90
2022-11-22T07:41:19.852Z,8.90
2022-11-22T07:43:47.213Z,8.90
2022-11-22T07:46:33.050Z,8.90
2022-11-22T07:49:01.739Z,8.90
2022-11-22T07:51:29.071Z,9.00
2022-11-22T07:53:56.800Z,8.90
2022-11-22T07:56:24.136Z,8.90
2022-11-22T07:58:51.032Z,9.00
2022-11-22T08:01:20.145Z,8.90
2022-11-22T08:03:47.423Z,8.90
2022-11-22T08:06:15.532Z,8.90
2022-11-22T08:08:43.727Z,8.90
2022-11-22T08:11:11.279Z,8.90
2022-11-22T08:13:38.311Z,8.90
2022-11-22T08:16:10.324Z,8.90
2022-11-22T08:18:39.819Z,8.90
2022-11-22T08:21:13.100Z,8.90
2022-11-22T08:23:42.462Z,8.90
2022-11-22T08:26:12.589Z,9.00
2022-11-22T08:28:41.005Z,8.90
2022-11-22T08:31:15.220Z,9.00
2022-11-22T08:33:42.205Z,9.00
2022-11-22T08:36:09.431Z,9.00
2022-11-22T08:38:36.398Z,9.00
2022-11-22T08:41:05.584Z,9.00
2022-11-22T08:43:32.851Z,9.10
2022-11-22T08:46:01.925Z,9.00
2022-11-22T08:48:31.368Z,9.10
2022-11-22T08:51:03.640Z,9.10
2022-11-22T08:53:37.915Z,9.10
2022-11-22T08:56:09.606Z,9.10
2022-11-22T08:58:37.658Z,9.10
2022-11-22T09:01:14.807Z,9.10
2022-11-22T09:03:43.521Z,9.10
2022-11-22T09:11:51.818Z,9.00
2022-11-22T09:14:18.629Z,9.10
2022-11-22T09:16:45.427Z,9.00
2022-11-22T09:19:12.313Z,9.00
2022-11-22T09:21:39.084Z,9.00
2022-11-22T09:24:06.248Z,9.00
2022-11-22T09:26:33.258Z,9.00
2022-11-22T09:29:00.114Z,9.00
2022-11-22T09:31:27.017Z,9.00
2022-11-22T09:33:53.849Z,9.00
2022-11-22T09:36:24.425Z,9.00
2022-11-22T09:38:52.199Z,9.00
2022-11-22T09:41:45.758Z,9.00
2022-11-22T09:44:55.327Z,9.10
2022-11-22T09:47:54.476Z,9.10
2022-11-22T09:51:01.388Z,9.20
2022-11-22T09:53:54.585Z,9.20
2022-11-22T09:56:27.051Z,9.20
2022-11-22T09:59:26.304Z,9.30
2022-11-22T10:02:19.110Z,9.30
2022-11-22T10:05:01.024Z,9.30
2022-11-22T10:07:36.923Z,9.30
2022-11-22T10:10:13.778Z,9.40
2022-11-22T10:12:53.527Z,9.40
2022-11-22T10:15:44.312Z,9.50
2022-11-22T10:18:18.489Z,9.40
2022-11-22T10:20:48.866Z,9.40
2022-11-22T10:23:27.036Z,9.40
2022-11-22T10:26:04.788Z,9.40
2022-11-22T10:28:50.784Z,9.30
2022-11-22T10:31:33.157Z,9.40
2022-11-22T10:34:48.327Z,9.30
2022-11-22T10:38:02.245Z,9.20
2022-11-22T10:40:49.646Z,9.20
2022-11-22T10:43:51.577Z,9.20
2022-11-22T10:46:37.817Z,9.10
2022-11-22T10:49:29.016Z,9.10
2022-11-22T10:52:14.635Z,9.10
2022-11-22T10:55:05.985Z,9.10
2022-11-22T10:57:51.168Z,9.10
2022-11-22T11:00:24.889Z,9.10
2022-11-22T11:03:29.136Z,9.20
2022-11-22T11:06:49.453Z,9.20
2022-11-22T11:11:54.719Z,9.30
2022-11-22T11:14:45.996Z,9.30
2022-11-22T11:17:28.127Z,9.40
2022-11-22T11:20:01.713Z,9.40
2022-11-22T11:23:06.404Z,9.40
2022-11-22T11:25:33.389Z,9.50
2022-11-22T11:28:11.004Z,9.50
2022-11-22T11:30:52.558Z,9.50
2022-11-22T11:33:35.886Z,9.50
2022-11-22T11:36:20.937Z,9.60
2022-11-22T11:38:57.447Z,9.60
2022-11-22T11:41:40.241Z,9.60
2022-11-22T11:44:33.323Z,9.60
2022-11-22T11:47:01.010Z,9.50
2022-11-22T11:49:34.077Z,9.50
2022-11-22T11:52:15.682Z,9.40
2022-11-22T11:54:49.348Z,9.40
2022-11-22T11:57:30.586Z,9.40
2022-11-22T12:00:01.828Z,9.50
2022-11-22T12:02:42.812Z,9.30
2022-11-22T12:05:12.693Z,9.30
2022-11-22T12:07:46.451Z,9.30
2022-11-22T12:10:37.996Z,9.30
2022-11-22T12:14:18.580Z,9.20
2022-11-22T12:16:46.030Z,9.20
2022-11-22T12:19:40.920Z,9.10
2022-11-22T12:22:48.966Z,9.00
2022-11-22T12:25:40.305Z,9.00
2022-11-22T12:28:25.466Z,8.90
2022-11-22T12:31:25.759Z,8.80
2022-11-22T12:34:20.485Z,8.80
2022-11-22T12:37:07.290Z,8.70
2022-11-22T12:39:37.739Z,8.70
2022-11-22T12:45:13.524Z,8.70
2022-11-22T12:47:45.841Z,8.70
2022-11-22T12:48:32.809Z,8.70
2022-11-22T12:50:39.422Z,8.70
2022-11-22T12:53:16.253Z,8.70
2022-11-22T12:56:09.355Z,8.70
2022-11-22T12:59:06.546Z,8.80
2022-11-22T13:01:42.270Z,8.80
2022-11-22T13:04:12.112Z,8.80
2022-11-22T13:07:01.922Z,8.80
2022-11-22T13:09:41.538Z,8.80
2022-11-22T13:12:25.127Z,8.70
2022-11-22T13:14:55.586Z,8.80
2022-11-22T13:17:26.100Z,8.70
2022-11-22T13:19:58.852Z,8.70
2022-11-22T13:22:46.683Z,8.80
2022-11-22T13:26:01.093Z,8.70
2022-11-22T13:28:36.456Z,8.80
2022-11-22T13:31:12.857Z,8.80
2022-11-22T13:33:51.577Z,8.80
2022-11-22T13:36:38.214Z,8.90
2022-11-22T13:39:15.806Z,8.90
2022-11-22T13:41:59.132Z,8.90
2022-11-22T13:44:36.497Z,9.00
2022-11-22T13:47:09.822Z,9.00
2022-11-22T13:49:49.211Z,9.00
2022-11-22T13:52:16.243Z,9.10
2022-11-22T13:54:56.659Z,9.00
2022-11-22T13:57:39.464Z,9.10
2022-11-22T14:00:15.050Z,9.10
2022-11-22T14:02:46.536Z,9.10
2022-11-22T14:05:35.360Z,9.10
2022-11-22T14:08:26.186Z,9.10
2022-11-22T14:10:53.193Z,9.10
2022-11-22T14:13:29.302Z,9.00
2022-11-22T14:16:21.961Z,9.00
2022-11-22T14:19:01.107Z,9.10
2022-11-22T14:21:46.640Z,9.10
2022-11-22T14:24:41.486Z,9.10
2022-11-22T14:27:48.768Z,9.00
2022-11-22T14:30:21.978Z,9.00
2022-11-22T14:33:03.319Z,8.90
2022-11-22T14:35:38.191Z,8.90
2022-11-22T14:38:31.959Z,8.90
2022-11-22T14:41:37.279Z,8.80
2022-11-22T14:44:19.832Z,8.80
2022-11-22T14:47:04.541Z,8.80
2022-11-22T14:49:48.511Z,8.70
2022-11-22T14:52:26.488Z,8.70
2022-11-22T14:55:00.936Z,8.70
2022-11-22T14:57:32.642Z,8.70
2022-11-22T15:00:23.211Z,8.60
2022-11-22T15:03:10.711Z,8.60
2022-11-22T15:09:15.085Z,8.60
2022-11-22T15:09:48.664Z,8.60
2022-11-22T15:12:42.321Z,8.60
2022-11-22T15:59:46.881Z,8.40
2022-11-22T16:02:33.212Z,8.40
2022-11-22T16:06:09.337Z,8.40
2022-11-22T16:07:57.408Z,8.40
2022-11-22T16:10:33.787Z,8.40
2022-11-22T16:13:18.698Z,8.40
2022-11-22T16:16:04.642Z,8.40
2022-11-22T16:18:31.928Z,8.40
2022-11-22T16:21:13.728Z,8.40
2022-11-22T16:23:42.812Z,8.40
2022-11-22T16:26:29.350Z,8.40
2022-11-22T16:29:18.239Z,8.40
2022-11-22T16:31:45.358Z,8.40
2022-11-22T16:34:18.020Z,8.40
2022-11-22T16:36:44.864Z,8.40
2022-11-22T16:39:11.658Z,8.50
2022-11-22T16:41:38.453Z,8.50
2022-11-22T16:44:14.183Z,8.40
2022-11-22T16:46:42.044Z,8.50
2022-11-22T16:49:21.107Z,8.40
2022-11-22T16:51:50.944Z,8.40
2022-11-22T16:54:20.709Z,8.40
2022-11-22T16:56:48.020Z,8.40
2022-11-22T16:59:14.943Z,8.40
2022-11-22T17:01:43.560Z,8.40
2022-11-22T17:04:26.223Z,8.30
2022-11-22T17:06:53.570Z,8.40
2022-11-22T17:09:20.533Z,8.40
2022-11-22T17:11:47.671Z,8.40
2022-11-22T17:14:17.810Z,8.40
2022-11-22T17:16:48.306Z,8.40
2022-11-22T17:19:45.601Z,8.30
2022-11-22T17:22:06.884Z,8.40
2022-11-22T17:24:34.601Z,8.30
2022-11-22T17:27:01.615Z,8.40
2022-11-22T17:29:49.232Z,8.40
2022-11-22T17:32:15.483Z,8.30
2022-11-22T17:34:42.520Z,8.30
2022-11-22T17:37:13.109Z,8.30
2022-11-22T17:39:40.899Z,8.30
2022-11-22T17:42:08.051Z,8.30
2022-11-22T17:44:34.942Z,8.30
2022-11-22T17:47:01.823Z,8.30
2022-11-22T17:49:29.191Z,8.40
2022-11-22T17:51:56.318Z,8.30
2022-11-22T17:54:23.185Z,8.30
2022-11-22T17:56:50.221Z,8.30
2022-11-22T17:59:17.129Z,8.30
2022-11-22T18:01:43.990Z,8.50
2022-11-22T18:04:11.153Z,8.30
2022-11-22T18:06:38.111Z,8.40
2022-11-22T18:09:05.005Z,8.30
2022-11-22T18:11:31.950Z,8.40
2022-11-22T18:13:58.872Z,8.30
2022-11-22T18:16:28.623Z,8.40
2022-11-22T18:18:57.798Z,8.40
2022-11-22T18:21:26.576Z,8.40
2022-11-22T18:23:53.481Z,8.40
2022-11-22T18:29:39.065Z,8.40
2022-11-22T18:31:55.797Z,8.40
2022-11-22T18:34:23.237Z,8.40
2022-11-22T18:36:56.312Z,8.40
2022-11-22T18:39:29.499Z,8.40
2022-11-22T18:41:56.707Z,8.40
2022-11-22T18:44:23.772Z,8.40
2022-11-22T18:46:50.739Z,8.40
2022-11-22T18:49:17.572Z,8.40
2022-11-22T18:51:44.502Z,8.40
2022-11-22T18:54:11.644Z,8.40
2022-11-22T18:56:40.568Z,8.40
2022-11-22T18:59:12.521Z,8.40
2022-11-22T19:01:40.688Z,8.30
2022-11-22T19:04:07.939Z,8.30
2022-11-22T19:06:34.992Z,8.30
2022-11-22T19:09:02.546Z,8.30
2022-11-22T19:11:31.694Z,8.20
2022-11-22T19:13:59.392Z,8.20
2022-11-22T19:16:30.353Z,8.20
2022-11-22T19:18:58.665Z,8.20
2022-11-22T19:21:28.499Z,8.10
2022-11-22T19:23:56.586Z,8.10
2022-11-22T19:26:26.808Z,8.10
2022-11-22T19:28:55.927Z,8.10
2022-11-22T19:31:27.607Z,8.10
2022-11-22T19:33:55.210Z,8.10
2022-11-22T19:36:30.798Z,8.10
2022-11-22T19:38:59.589Z,8.10
2022-11-22T19:41:26.809Z,8.10
2022-11-22T19:43:55.751Z,8.10
2022-11-22T19:46:23.368Z,8.10
2022-11-22T19:48:52.649Z,8.10
2022-11-22T19:51:20.564Z,8.00
2022-11-22T19:53:48.064Z,8.00
2022-11-22T19:56:19.526Z,8.00
2022-11-22T19:58:54.652Z,8.00
2022-11-22T20:01:24.777Z,8.00
2022-11-22T20:04:00.417Z,8.00
2022-11-22T20:06:28.747Z,7.90
2022-11-22T20:09:11.479Z,7.90
2022-11-22T20:11:42.811Z,7.90
2022-11-22T20:14:10.435Z,7.90
2022-11-22T20:16:41.330Z,7.90
2022-11-22T20:19:09.606Z,7.90
2022-11-22T20:21:38.307Z,7.80
2022-11-22T20:24:06.453Z,7.80
2022-11-22T20:26:34.297Z,7.80
2022-11-22T20:29:07.715Z,7.80
2022-11-22T20:31:37.859Z,7.80
2022-11-22T20:34:05.549Z,7.80
2022-11-22T20:36:35.456Z,7.80
2022-11-22T20:39:09.521Z,7.80
2022-11-22T20:41:37.971Z,7.80
2022-11-22T20:44:05.314Z,7.80
2022-11-22T20:46:35.597Z,7.80
2022-11-22T20:49:02.419Z,7.80
2022-11-22T20:51:29.572Z,7.80
2022-11-22T20:53:57.004Z,7.80
2022-11-22T20:56:25.072Z,7.70
2022-11-22T20:58:52.596Z,7.70
2022-11-22T21:01:26.208Z,7.70
2022-11-22T21:03:54.517Z,7.70
2022-11-22T21:06:24.208Z,7.70
2022-11-22T21:08:51.818Z,7.70
2022-11-22T21:11:28.291Z,7.70
2022-11-22T21:13:57.343Z,7.70
2022-11-22T21:16:28.161Z,7.70
2022-11-22T21:19:01.301Z,7.70
2022-11-22T21:21:29.929Z,7.80
2022-11-22T21:24:02.382Z,7.80
2022-11-22T21:26:30.181Z,7.70
2022-11-22T21:28:57.698Z,7.80
2022-11-22T21:31:25.163Z,7.80
2022-11-22T21:33:52.687Z,7.70
2022-11-22T21:36:20.593Z,7.70
2022-11-22T21:38:48.058Z,7.70
2022-11-22T21:44:06.310Z,7.70
2022-11-22T21:46:33.154Z,7.80
2022-11-22T21:49:00.021Z,7.80
2022-11-22T21:51:26.972Z,7.80
2022-11-22T21:54:01.692Z,7.80
2022-11-22T21:56:29.116Z,7.70
2022-11-22T21:58:56.278Z,7.80
2022-11-22T22:01:24.439Z,7.80
2022-11-22T22:03:52.390Z,7.80
2022-11-22T22:06:19.651Z,7.90
2022-11-22T22:08:46.622Z,7.90
2022-11-22T22:11:13.586Z,7.80
2022-11-22T22:13:40.629Z,7.80
2022-11-22T22:16:08.785Z,7.80
2022-11-22T22:18:37.664Z,7.80
2022-11-22T22:21:10.460Z,7.90
2022-11-22T22:23:39.808Z,7.90
2022-11-22T22:26:10.846Z,7.90
2022-11-22T22:28:40.120Z,7.90
2022-11-22T22:31:17.024Z,7.90
2022-11-22T22:33:45.681Z,7.80
2022-11-22T22:36:13.644Z,7.80
2022-11-22T22:38:41.174Z,7.80
2022-11-22T22:41:12.346Z,7.90
2022-11-22T22:43:42.877Z,7.80
2022-11-22T22:46:12.796Z,7.80
2022-11-22T22:48:40.612Z,7.80
2022-11-22T22:51:13.343Z,7.80
2022-11-22T22:53:41.733Z,7.80
2022-11-22T22:56:10.252Z,8.00
2022-11-22T22:58:37.445Z,7.90
2022-11-22T23:01:22.797Z,7.90
2022-11-22T23:03:57.544Z,7.90
2022-11-22T23:06:27.658Z,7.90
2022-11-22T23:08:55.564Z,7.90
2022-11-22T23:11:47.813Z,8.10
2022-11-22T23:14:18.441Z,8.00
2022-11-22T23:16:45.358Z,8.10
2022-11-22T23:19:13.004Z,8.10
2022-11-22T23:21:40.324Z,8.10
2022-11-22T23:24:08.332Z,8.10
2022-11-22T23:26:35.552Z,8.10
2022-11-22T23:29:02.458Z,8.10
2022-11-22T23:31:29.228Z,8.20
2022-11-22T23:33:56.244Z,8.10
2022-11-22T23:36:23.594Z,8.20
2022-11-22T23:38:50.371Z,8.10
2022-11-22T23:41:20.656Z,8.10
2022-11-22T23:43:53.215Z,8.20
2022-11-22T23:46:20.693Z,8.20
2022-11-22T23:48:53.750Z,8.20
2022-11-22T23:51:21.858Z,8.20
2022-11-22T23:53:48.816Z,8.20
2022-11-22T23:56:21.837Z,8.20
2022-11-22T23:58:49.726Z,8.20
